Imperial Beach, CA (91932)

10:25 PM PST on December 09, 2016 (GMT -0800)
KCAIMPER2 | | Change Station

Elev 14 ft 32.58 °N, 117.13 °W | Updated 1 minute ago

Overcast
Overcast
59.7 °F
Feels Like 59.7 °F
N
3.0
Wind Variable Wind from NW
Gusts 8.0 mph

Today
High -- | Low -- °F
--% Chance of Precip.
Yesterday
High -- | Low -- °F
Precip. -- in
Pressure 30.19 in
Visibility 10.0 miles
Clouds Overcast 1600 ft
Dew Point 55 °F
Humidity 85%
Rainfall 0.00 in
Snow Depth Not available.
6:39 AM 4:42 PM
Waxing Gibbous, 81% visible
METAR KNRS 100556Z AUTO 32004KT 10SM OVC016 17/13 A3019 RMK AO2 SLP223 T01670133 10178 20167 50005 $
Pressure 30.19 in
Visibility 10.0 miles
Clouds Overcast 1600 ft
Dew Point 55 °F
Humidity 85%
Rainfall 0.00 in
Snow Depth Not available.
6:39 AM 4:42 PM
Waxing Gibbous, 81% visible
METAR KNRS 100556Z AUTO 32004KT 10SM OVC016 17/13 A3019 RMK AO2 SLP223 T01670133 10178 20167 50005 $

10-Day Weather Forecast

Almanac

Astronomy

Dec. 09, 2016 Rise Set
Actual Time
Civil Twilight
Nautical Twilight
Astronomical Twilight
Moon
Length of Visible Light
Length of Day
Tomorrow will be .
, % of the Moon is Illuminated

Today's Extremes

State Highs State Lows

Community

WunderPhotos

Upload Photos

1,956,527 photos uploaded!

WunderBlog® & News

Nearby

Air Quality

  Air Quality AQ Index Pollutant
Not available.

Snow Depth

Station Depth Elevation

Earthquake Activity

City Distance Mag. Time & Date
Minimum magnitude displayed is 2.5.

Coastal Water Temperatures

Place Temperature

Stations

Nearby Weather Stations

Station Location Temp. Windchill Dew Point Humidity Wind Precip. Elev Updated Type
                   

Watches & Warnings

There are currently no watches in effect.